Time;durP1;ratioP1;P1;durP2;ratioP2;P2;SDS_P1;SDS_P2;PMS_P1;PMS_P2;Temp;Humidity;BMP_temperature;BMP_pressure;BME280_temperature;BME280_humidity;BME280_pressure;Samples;Min_cycle;Max_cycle;Signal;HPM_P1;HPM_P2
2021/01/19 03:45:27;;;;;;;4.07;2.17;;;-2.70;99.90;;;;;;5941820;22;89212;-86
2021/01/19 03:47:53;;;;;;;4.85;3.03;;;-2.70;99.90;;;;;;4960495;28;87918;-88
2021/01/19 03:50:19;;;;;;;3.88;2.78;;;;;;;;;;4961169;28;88492;-87
2021/01/19 03:52:45;;;;;;;4.43;2.75;;;-2.70;99.90;;;;;;4953385;28;87309;-87
2021/01/19 03:55:11;;;;;;;8.52;3.05;;;-2.80;99.90;;;;;;4953310;28;87851;-87
2021/01/19 03:57:37;;;;;;;5.22;3.13;;;;;;;;;;4959643;28;86323;-88
2021/01/19 04:00:08;;;;;;;5.37;4.20;;;-3.00;99.90;;;;;;4970042;28;86857;-87
2021/01/19 04:02:33;;;;;;;;;;;-3.10;99.90;;;;;;4966673;28;88532;-87
2021/01/19 04:04:59;;;;;;;6.30;4.35;;;-3.20;99.90;;;;;;4964482;28;86854;-87
2021/01/19 04:07:25;;;;;;;5.63;4.07;;;-3.30;99.90;;;;;;4953031;28;86960;-87
2021/01/19 04:09:52;;;;;;;7.33;4.30;;;-3.30;99.90;;;;;;4957378;28;88492;-87
2021/01/19 04:12:18;;;;;;;4.33;2.87;;;-3.50;99.90;;;;;;4973408;28;86975;-88
2021/01/19 04:14:44;;;;;;;3.92;2.67;;;-3.40;99.90;;;;;;4972919;28;86845;-89
2021/01/19 04:17:10;;;;;;;3.47;2.92;;;-3.60;99.90;;;;;;4965005;28;86911;-89
2021/01/19 04:19:36;;;;;;;2.65;2.30;;;;;;;;;;4959805;28;88309;-88
2021/01/19 04:22:02;;;;;;;2.93;1.70;;;-3.90;99.90;;;;;;4958739;28;88833;-87
2021/01/19 04:24:28;;;;;;;2.57;2.13;;;;;;;;;;4951355;28;86586;-88
2021/01/19 04:26:53;;;;;;;1.15;1.05;;;-3.60;99.90;;;;;;4953536;28;87074;-85
2021/01/19 04:29:19;;;;;;;3.03;1.70;;;-3.10;99.90;;;;;;4955708;28;87086;-89
2021/01/19 04:31:45;;;;;;;2.03;1.50;;;-3.00;99.90;;;;;;4947512;28;87181;-88
2021/01/19 04:34:10;;;;;;;1.30;1.20;;;-2.80;99.90;;;;;;4969008;28;86961;-88
2021/01/19 04:36:36;;;;;;;1.87;1.27;;;;;;;;;;4955327;28;86266;-86
2021/01/19 04:39:03;;;;;;;2.15;1.40;;;-2.40;99.90;;;;;;4950303;28;87686;-87
2021/01/19 04:41:29;;;;;;;1.42;1.30;;;-2.30;99.90;;;;;;4963143;28;86415;-84
2021/01/19 04:43:56;;;;;;;2.20;1.65;;;-2.20;99.90;;;;;;4970227;28;87418;-87
2021/01/19 04:52:22;;;;;;;1.17;1.13;;;-2.10;99.90;;;;;;5016303;23;89325;-84
2021/01/19 04:55:02;;;;;;;2.05;1.52;;;-2.00;99.90;;;;;;4946115;28;86836;-86
2021/01/19 04:57:30;;;;;;;1.40;1.30;;;-2.00;99.90;;;;;;4942863;28;86955;-85
2021/01/19 05:00:03;;;;;;;1.45;1.00;;;-2.10;99.90;;;;;;4944802;28;87729;-85
2021/01/19 05:02:43;;;;;;;1.38;1.27;;;-1.90;99.90;;;;;;4943762;28;86236;-85
2021/01/19 05:05:32;;;;;;;1.30;1.20;;;-2.00;99.90;;;;;;4966672;28;86279;-85
2021/01/19 05:08:17;;;;;;;1.88;1.40;;;-1.90;99.90;;;;;;4957076;28;86536;-84
2021/01/19 05:10:54;;;;;;;1.88;1.65;;;-1.90;99.90;;;;;;4959616;28;88414;-86
2021/01/19 05:13:46;;;;;;;2.10;1.48;;;-1.80;99.90;;;;;;4966050;28;87387;-85
2021/01/19 05:16:19;;;;;;;1.50;1.40;;;-1.80;99.90;;;;;;4967568;28;87214;-85
2021/01/19 05:18:46;;;;;;;2.08;1.20;;;-1.80;99.90;;;;;;4967729;28;86531;-85
2021/01/19 05:21:12;;;;;;;2.75;1.42;;;-1.80;99.90;;;;;;4966956;28;87331;-85
2021/01/19 05:23:38;;;;;;;1.23;1.13;;;-1.70;99.90;;;;;;4960353;28;87004;-85
2021/01/19 05:26:06;;;;;;;1.85;1.70;;;-1.70;99.90;;;;;;4967044;28;87033;-84
2021/01/19 05:28:35;;;;;;;1.40;1.30;;;-1.70;99.90;;;;;;4966363;28;86176;-84
2021/01/19 05:31:27;;;;;;;1.52;1.38;;;-1.70;99.90;;;;;;4961729;28;89286;-84
2021/01/19 05:33:53;;;;;;;1.85;1.05;;;-1.70;99.90;;;;;;4961647;28;88480;-84
2021/01/19 05:36:23;;;;;;;1.65;1.45;;;-1.60;99.90;;;;;;4965652;28;87732;-84
2021/01/19 05:38:52;;;;;;;1.20;1.20;;;-1.70;99.90;;;;;;4967218;28;86509;-84
2021/01/19 05:41:32;;;;;;;1.35;1.20;;;-1.70;99.90;;;;;;4965442;28;87002;-83
2021/01/19 05:44:19;;;;;;;2.58;1.60;;;-1.70;99.90;;;;;;4963661;28;87064;-83
2021/01/19 05:47:02;;;;;;;1.85;1.70;;;-1.70;99.90;;;;;;4965789;28;87205;-83
2021/01/19 05:49:38;;;;;;;2.08;1.40;;;-1.80;99.90;;;;;;4957759;28;86899;-83
2021/01/19 05:52:11;;;;;;;2.15;2.00;;;-1.70;99.90;;;;;;4962796;28;87361;-83
2021/01/19 05:54:43;;;;;;;0.95;0.95;;;-1.70;99.90;;;;;;4966619;28;87476;-83
2021/01/19 05:57:16;;;;;;;1.38;1.27;;;-1.70;99.90;;;;;;4966464;28;86876;-83
2021/01/19 05:59:51;;;;;;;3.60;2.35;;;-1.70;99.90;;;;;;4964980;28;87014;-83
2021/01/19 06:02:18;;;;;;;4.38;2.58;;;-1.70;99.90;;;;;;4970902;28;89280;-83
2021/01/19 06:04:47;;;;;;;9.73;3.95;;;-1.80;99.90;;;;;;4972089;28;88877;-84
2021/01/19 06:07:15;;;;;;;4.55;2.75;;;-1.90;99.90;;;;;;4968183;28;86598;-82
2021/01/19 06:09:42;;;;;;;11.98;5.22;;;-2.20;99.90;;;;;;4964528;28;87213;-84
2021/01/19 06:12:08;;;;;;;9.02;6.22;;;-2.30;99.90;;;;;;4971015;28;86900;-83
2021/01/19 06:14:34;;;;;;;6.35;3.67;;;-2.50;99.90;;;;;;4970181;28;87599;-84
2021/01/19 06:17:08;;;;;;;9.40;4.45;;;-2.70;99.90;;;;;;4965960;28;86377;-85
2021/01/19 06:19:35;;;;;;;10.27;4.75;;;-2.90;99.90;;;;;;4962157;28;86273;-84
2021/01/19 06:22:06;;;;;;;7.38;4.50;;;-3.20;99.90;;;;;;4963924;28;87351;-83
2021/01/19 06:24:34;;;;;;;;;;;-3.40;99.90;;;;;;4957944;28;87302;-84
2021/01/19 06:27:01;;;;;;;1.92;1.80;;;-3.30;99.90;;;;;;4960998;28;88249;-81
2021/01/19 06:29:28;;;;;;;3.80;2.25;;;-3.30;99.90;;;;;;4958266;28;87372;-81
2021/01/19 06:32:01;;;;;;;4.50;4.10;;;-2.70;99.90;;;;;;4957830;28;87386;-84
2021/01/19 06:34:29;;;;;;;3.67;2.22;;;-2.80;99.90;;;;;;4958830;28;87504;-83
2021/01/19 06:36:55;;;;;;;1.75;1.65;;;-2.70;99.90;;;;;;4971600;28;87571;-84
2021/01/19 06:39:34;;;;;;;1.38;1.27;;;-2.50;99.90;;;;;;4965585;28;87391;-85
2021/01/19 06:42:04;;;;;;;1.77;1.58;;;-2.30;99.90;;;;;;4959654;28;87669;-83
2021/01/19 06:44:36;;;;;;;1.63;1.50;;;-2.20;99.90;;;;;;4954321;28;87596;-83
2021/01/19 06:47:03;;;;;;;1.48;1.38;;;-2.00;99.90;;;;;;4959425;28;87018;-84
2021/01/19 06:49:33;;;;;;;1.80;1.65;;;-1.90;99.90;;;;;;4959836;28;87271;-84
2021/01/19 06:52:10;;;;;;;1.20;1.10;;;-1.80;99.90;;;;;;4962561;28;89227;-86
2021/01/19 06:54:54;;;;;;;1.67;1.52;;;-1.80;99.90;;;;;;4960505;28;88052;-85
2021/01/19 06:57:50;;;;;;;2.63;1.60;;;-1.70;99.90;;;;;;4960571;28;87017;-88
2021/01/19 07:00:18;;;;;;;2.53;1.90;;;-1.70;99.90;;;;;;4956163;28;87125;-86
2021/01/19 07:02:46;;;;;;;3.70;2.67;;;-1.60;99.90;;;;;;4953432;28;88794;-83
2021/01/19 07:05:14;;;;;;;4.93;2.75;;;-1.70;99.90;;;;;;4954751;28;87437;-84
2021/01/19 07:07:47;;;;;;;6.40;2.60;;;-1.80;99.90;;;;;;4960065;28;86860;-83
2021/01/19 07:10:25;;;;;;;4.00;2.63;;;-1.80;99.90;;;;;;4960780;28;86756;-86
2021/01/19 07:13:01;;;;;;;4.85;3.38;;;-1.90;99.90;;;;;;4950999;28;89031;-85
2021/01/19 07:15:41;;;;;;;4.93;3.05;;;-2.10;99.90;;;;;;4954860;28;86993;-85
2021/01/19 07:18:17;;;;;;;5.20;2.97;;;-2.20;99.90;;;;;;4965964;28;87916;-86
2021/01/19 07:21:05;;;;;;;5.15;3.22;;;-2.30;99.90;;;;;;4965022;28;86643;-86
2021/01/19 07:23:46;;;;;;;3.83;3.20;;;-2.30;99.90;;;;;;4964522;28;88270;-85
2021/01/19 07:26:20;;;;;;;4.70;2.65;;;-2.30;99.90;;;;;;4979601;28;87052;-85
2021/01/19 07:28:48;;;;;;;3.08;2.40;;;-2.20;99.90;;;;;;4960702;28;86860;-85
2021/01/19 07:31:19;;;;;;;3.15;2.30;;;-2.10;99.90;;;;;;4965337;28;86770;-85
2021/01/19 07:33:51;;;;;;;3.63;2.78;;;-2.00;99.90;;;;;;4963811;28;86831;-85
2021/01/19 07:36:18;;;;;;;4.28;2.63;;;-2.00;99.90;;;;;;4978360;28;88524;-85
2021/01/19 07:38:45;;;;;;;4.43;2.35;;;-1.90;99.90;;;;;;4963410;28;87354;-85
2021/01/19 07:41:11;;;;;;;3.30;2.38;;;-1.80;99.90;;;;;;4965439;28;86852;-86
2021/01/19 07:43:39;;;;;;;4.32;2.80;;;-1.70;99.90;;;;;;4965577;28;87850;-85
2021/01/19 07:46:05;;;;;;;3.85;3.45;;;-1.70;99.90;;;;;;4953945;28;87866;-86
2021/01/19 07:48:35;;;;;;;4.72;2.88;;;-1.70;99.90;;;;;;4959545;28;87092;-86
2021/01/19 07:51:17;;;;;;;4.22;2.90;;;-1.70;99.90;;;;;;4961026;28;86243;-86
2021/01/19 07:53:52;;;;;;;5.38;3.40;;;-1.70;99.90;;;;;;4961531;28;87090;-85
2021/01/19 07:56:28;;;;;;;4.28;3.28;;;-1.60;99.90;;;;;;4964347;28;87751;-85
2021/01/19 07:58:55;;;;;;;5.05;3.33;;;-1.50;99.90;;;;;;4957141;28;87276;-86
2021/01/19 08:01:35;;;;;;;2.28;1.90;;;-1.40;99.90;;;;;;4971227;28;86322;-86
2021/01/19 08:04:12;;;;;;;2.37;2.17;;;-1.40;99.90;;;;;;4953066;28;87418;-86
2021/01/19 08:06:39;;;;;;;21.50;12.32;;;-1.30;99.90;;;;;;4954665;28;87873;-86
2021/01/19 08:09:13;;;;;;;30.30;14.98;;;-1.10;99.90;;;;;;4953751;28;87306;-86
2021/01/19 08:11:40;;;;;;;12.85;7.65;;;-0.80;99.90;;;;;;4962544;28;87122;-86
2021/01/19 08:14:07;;;;;;;8.63;5.63;;;-0.60;99.90;;;;;;4963237;28;88878;-85
2021/01/19 08:16:36;;;;;;;1.52;1.45;;;-0.40;99.90;;;;;;4963702;28;86900;-86
2021/01/19 08:19:09;;;;;;;3.03;1.40;;;-0.20;96.80;;;;;;4963561;28;87008;-86
2021/01/19 08:21:52;;;;;;;1.70;1.60;;;0.10;95.60;;;;;;4950745;28;87032;-85
2021/01/19 08:24:22;;;;;;;2.70;1.63;;;0.30;94.40;;;;;;4965369;28;86972;-86
2021/01/19 08:26:49;;;;;;;1.45;1.30;;;0.40;95.20;;;;;;4962410;28;86942;-86
2021/01/19 08:29:19;;;;;;;2.15;1.30;;;0.60;93.80;;;;;;4960659;28;86727;-86
2021/01/19 08:31:55;;;;;;;1.83;1.33;;;0.60;93.30;;;;;;4963200;28;87253;-85
2021/01/19 08:34:22;;;;;;;2.17;1.25;;;0.70;91.60;;;;;;4959369;28;89221;-86
2021/01/19 08:36:49;;;;;;;1.92;1.52;;;0.70;91.60;;;;;;4953776;28;87929;-86
2021/01/19 08:39:18;;;;;;;3.55;1.77;;;0.80;90.80;;;;;;4969631;28;86658;-85
2021/01/19 08:41:46;;;;;;;3.17;1.75;;;0.90;91.50;;;;;;4957870;28;87114;-85
2021/01/19 08:44:13;;;;;;;3.40;1.40;;;1.00;91.30;;;;;;4964305;28;87264;-86
2021/01/19 08:46:40;;;;;;;3.03;2.88;;;1.40;91.60;;;;;;4962054;28;87788;-86
2021/01/19 08:49:10;;;;;;;3.55;3.35;;;1.40;88.70;;;;;;4965318;28;86436;-85
2021/01/19 08:51:37;;;;;;;6.05;5.20;;;1.50;91.50;;;;;;4964104;28;85600;-85
2021/01/19 08:54:10;;;;;;;5.45;4.75;;;1.80;93.10;;;;;;4964171;28;86884;-85
2021/01/19 08:56:41;;;;;;;4.78;4.03;;;2.40;91.40;;;;;;4963783;28;87513;-85
2021/01/19 08:59:07;;;;;;;4.07;3.67;;;3.50;92.30;;;;;;4964162;28;87854;-85
2021/01/19 09:01:33;;;;;;;3.88;3.53;;;4.50;77.60;;;;;;4962733;28;87036;-86
2021/01/19 09:04:00;;;;;;;3.38;3.15;;;5.00;75.00;;;;;;4973384;28;88122;-85
2021/01/19 09:06:26;;;;;;;2.60;2.45;;;5.00;74.30;;;;;;4966391;28;87128;-86
2021/01/19 09:08:57;;;;;;;2.80;2.60;;;4.80;69.50;;;;;;4970057;28;86964;-86
2021/01/19 09:11:27;;;;;;;4.25;3.60;;;4.70;69.10;;;;;;4970380;28;87057;-85
2021/01/19 09:14:00;;;;;;;3.60;3.30;;;4.80;68.90;;;;;;4968618;28;88039;-86
2021/01/19 09:16:28;;;;;;;5.15;4.10;;;4.50;66.50;;;;;;4967602;28;87525;-86
2021/01/19 09:18:56;;;;;;;3.95;3.42;;;4.70;69.60;;;;;;4968555;28;87066;-85
2021/01/19 09:21:23;;;;;;;5.35;4.15;;;4.70;67.50;;;;;;4969151;28;86850;-86
2021/01/19 09:23:49;;;;;;;6.05;4.50;;;4.60;69.20;;;;;;4961537;28;88241;-86
2021/01/19 09:26:14;;;;;;;5.60;5.00;;;4.80;67.60;;;;;;4967359;28;88252;-86
2021/01/19 09:28:40;;;;;;;6.10;5.05;;;4.70;67.00;;;;;;4966280;28;86649;-86
2021/01/19 09:31:13;;;;;;;7.65;5.32;;;4.70;69.00;;;;;;4966632;28;87077;-85
2021/01/19 09:33:40;;;;;;;8.05;4.63;;;5.60;67.20;;;;;;4966402;28;86736;-86
2021/01/19 09:36:07;;;;;;;6.15;5.13;;;5.80;63.20;;;;;;4965967;28;86422;-86
2021/01/19 09:38:34;;;;;;;5.40;4.18;;;5.40;64.00;;;;;;4963608;28;87065;-86
2021/01/19 09:41:00;;;;;;;6.32;4.03;;;4.90;66.60;;;;;;4967635;28;85886;-86
2021/01/19 09:43:26;;;;;;;3.50;3.20;;;4.20;68.60;;;;;;4966089;28;86869;-86
2021/01/19 09:46:06;;;;;;;4.95;4.45;;;4.30;68.40;;;;;;4968215;28;87041;-86
2021/01/19 09:48:34;;;;;;;4.30;3.78;;;4.00;69.30;;;;;;4967897;28;87947;-86
2021/01/19 09:51:07;;;;;;;4.53;4.13;;;4.00;69.60;;;;;;4969888;28;86851;-86
2021/01/19 09:53:34;;;;;;;4.10;3.70;;;4.10;70.30;;;;;;4968128;28;87616;-85
2021/01/19 09:56:17;;;;;;;5.45;4.22;;;4.50;70.50;;;;;;4968997;28;86938;-86
2021/01/19 09:58:43;;;;;;;5.18;4.53;;;5.30;69.40;;;;;;4968165;28;86683;-86
2021/01/19 10:01:19;;;;;;;4.50;3.83;;;5.60;66.40;;;;;;4966716;28;87305;-86
2021/01/19 10:03:45;;;;;;;4.70;3.80;;;5.80;66.20;;;;;;4970298;28;86872;-86
2021/01/19 10:06:17;;;;;;;5.72;4.22;;;6.50;64.20;;;;;;4966247;28;86964;-86
2021/01/19 10:08:47;;;;;;;4.18;3.88;;;7.00;61.70;;;;;;4963113;28;86962;-86
2021/01/19 10:11:13;;;;;;;4.65;4.13;;;7.60;62.60;;;;;;4966868;28;86227;-86
2021/01/19 10:13:39;;;;;;;4.60;3.88;;;7.80;59.90;;;;;;4959961;28;88351;-86
2021/01/19 10:16:05;;;;;;;4.30;3.70;;;7.80;58.70;;;;;;4964646;28;87297;-86
2021/01/19 10:18:32;;;;;;;5.15;4.00;;;7.20;59.10;;;;;;4959629;28;86986;-86
2021/01/19 10:20:58;;;;;;;4.43;4.03;;;6.60;59.90;;;;;;4955385;28;86931;-86
2021/01/19 10:23:25;;;;;;;4.40;4.00;;;6.30;62.80;;;;;;4963979;28;86964;-86
2021/01/19 10:26:03;;;;;;;6.25;4.20;;;6.30;64.30;;;;;;4965351;28;86891;-86
2021/01/19 10:28:36;;;;;;;5.00;4.53;;;6.60;64.50;;;;;;4964716;28;86877;-86
2021/01/19 10:31:19;;;;;;;4.30;3.88;;;6.90;63.80;;;;;;4966445;28;86209;-86
2021/01/19 10:34:00;;;;;;;4.38;3.75;;;7.40;62.50;;;;;;4963679;28;87207;-86
2021/01/19 10:36:27;;;;;;;6.60;4.07;;;8.00;62.00;;;;;;4964276;28;87125;-86
2021/01/19 10:38:53;;;;;;;4.22;3.75;;;8.70;59.40;;;;;;4963414;28;87880;-86
2021/01/19 10:41:29;;;;;;;4.50;4.07;;;9.40;58.60;;;;;;4960162;28;86552;-86
2021/01/19 10:43:56;;;;;;;5.93;4.68;;;10.30;55.90;;;;;;4951048;28;87072;-87
2021/01/19 10:46:26;;;;;;;6.30;4.60;;;11.00;55.70;;;;;;4963027;28;87668;-86
2021/01/19 10:49:11;;;;;;;5.90;4.63;;;11.50;53.90;;;;;;4961147;28;86908;-86
2021/01/19 10:51:38;;;;;;;6.90;6.18;;;11.90;50.90;;;;;;4962939;28;86943;-87
2021/01/19 10:54:05;;;;;;;6.43;4.70;;;12.00;51.30;;;;;;4960110;28;87049;-86
2021/01/19 10:56:30;;;;;;;5.30;4.78;;;11.90;50.60;;;;;;4964142;28;86575;-87
2021/01/19 10:58:56;;;;;;;7.97;5.20;;;11.70;48.80;;;;;;4963686;28;87044;-86
2021/01/19 11:01:22;;;;;;;5.40;4.82;;;11.00;50.50;;;;;;4954151;28;87288;-87
2021/01/19 11:03:47;;;;;;;6.03;4.88;;;10.80;51.30;;;;;;4961366;28;88294;-87
2021/01/19 11:06:13;;;;;;;5.55;5.00;;;11.00;52.30;;;;;;4962310;28;87465;-86
2021/01/19 11:08:39;;;;;;;5.68;5.15;;;11.00;49.50;;;;;;4963154;28;86778;-87
2021/01/19 11:11:04;;;;;;;7.05;4.85;;;11.10;51.80;;;;;;4963200;28;87166;-86
2021/01/19 11:13:30;;;;;;;5.28;4.78;;;11.20;51.20;;;;;;4952450;28;88082;-87
2021/01/19 11:15:56;;;;;;;8.57;5.00;;;11.20;50.90;;;;;;4946824;28;87565;-84
2021/01/19 11:18:22;;;;;;;4.32;3.92;;;11.20;50.60;;;;;;4962335;28;87044;-90
2021/01/19 11:20:49;;;;;;;2.85;2.65;;;11.20;48.50;;;;;;4960858;28;86127;-88
2021/01/19 11:23:15;;;;;;;2.83;2.63;;;10.80;46.40;;;;;;4958356;28;87289;-84
2021/01/19 11:25:40;;;;;;;2.50;2.30;;;9.60;46.80;;;;;;4962415;28;86970;-87
2021/01/19 11:28:06;;;;;;;4.57;3.17;;;9.00;49.70;;;;;;4962111;28;87076;-88
2021/01/19 11:30:32;;;;;;;3.90;3.60;;;8.90;51.70;;;;;;4958026;28;86830;-88
2021/01/19 11:32:58;;;;;;;3.95;2.95;;;9.00;53.10;;;;;;4960184;28;86822;-88
2021/01/19 11:35:23;;;;;;;3.83;2.88;;;9.30;51.30;;;;;;4968983;28;87393;-87
2021/01/19 11:37:49;;;;;;;4.97;3.45;;;8.90;52.30;;;;;;4949876;28;86984;-87
2021/01/19 11:40:15;;;;;;;3.65;3.30;;;8.40;52.20;;;;;;4962450;28;86890;-87
2021/01/19 11:42:40;;;;;;;5.05;3.92;;;8.30;53.10;;;;;;4963339;28;87684;-88
2021/01/19 11:45:06;;;;;;;6.22;3.97;;;8.50;54.00;;;;;;4964978;28;89219;-87
2021/01/19 11:47:33;;;;;;;4.47;4.07;;;8.70;53.40;;;;;;4963242;28;86584;-87
2021/01/19 11:49:59;;;;;;;4.70;3.65;;;8.90;52.40;;;;;;4964097;28;86843;-87
2021/01/19 11:52:25;;;;;;;5.05;3.33;;;9.00;52.00;;;;;;4966324;28;89212;-87
2021/01/19 11:54:51;;;;;;;5.35;4.05;;;9.00;51.90;;;;;;4963274;28;87766;-88
2021/01/19 11:57:16;;;;;;;5.93;4.32;;;8.80;52.20;;;;;;4962498;28;87017;-87
2021/01/19 11:59:43;;;;;;;4.63;3.50;;;8.50;53.00;;;;;;4961994;28;87086;-87
2021/01/19 12:02:08;;;;;;;5.18;3.92;;;7.70;53.40;;;;;;4962612;28;87110;-88
2021/01/19 12:04:34;;;;;;;4.05;3.65;;;7.20;55.20;;;;;;4961146;28;86941;-88
2021/01/19 12:07:01;;;;;;;3.70;3.33;;;7.20;56.20;;;;;;4944552;28;86861;-86
2021/01/19 12:09:27;;;;;;;4.70;3.85;;;7.30;57.20;;;;;;4962065;28;86222;-87
2021/01/19 12:11:54;;;;;;;5.45;3.83;;;7.50;56.80;;;;;;4960523;28;89700;-87
2021/01/19 12:14:21;;;;;;;6.05;4.38;;;7.60;57.70;;;;;;4967901;28;87138;-87
2021/01/19 12:16:50;;;;;;;4.40;4.00;;;7.80;57.10;;;;;;4961372;28;88026;-88
2021/01/19 12:19:16;;;;;;;6.63;4.30;;;8.10;56.50;;;;;;4959885;28;87885;-89
2021/01/19 12:21:50;;;;;;;7.88;4.55;;;8.40;55.50;;;;;;4962391;28;90195;-88
2021/01/19 12:24:16;;;;;;;6.25;4.25;;;8.10;55.30;;;;;;4960116;28;87573;-89
2021/01/19 12:26:49;;;;;;;5.40;4.57;;;7.70;56.30;;;;;;4962158;28;86525;-89
2021/01/19 12:29:16;;;;;;;5.97;4.88;;;7.90;56.90;;;;;;4963218;28;86999;-89
2021/01/19 12:31:41;;;;;;;6.88;4.30;;;8.40;56.10;;;;;;4962672;28;87110;-90
2021/01/19 12:34:07;;;;;;;8.63;5.00;;;9.00;56.70;;;;;;4956051;28;90521;-90
2021/01/19 12:36:33;;;;;;;4.53;4.03;;;9.40;53.80;;;;;;4964870;28;86899;-90
2021/01/19 12:39:01;;;;;;;5.65;3.88;;;9.40;54.10;;;;;;4960594;28;86971;-90
2021/01/19 12:41:27;;;;;;;4.70;3.60;;;9.20;52.10;;;;;;4951152;28;91262;-90
2021/01/19 12:43:53;;;;;;;6.00;4.25;;;;;;;;;;4955648;28;90424;-91
2021/01/19 12:46:20;;;;;;;4.45;4.05;;;;;;;;;;4965373;28;87083;-89
2021/01/19 12:48:46;;;;;;;4.75;4.18;;;8.80;53.40;;;;;;4954507;28;86930;-89
2021/01/19 12:51:18;;;;;;;4.43;4.00;;;9.10;55.70;;;;;;4963041;28;89445;-89
2021/01/19 12:53:50;;;;;;;5.57;4.70;;;9.20;55.60;;;;;;4964442;28;87948;-89
2021/01/19 12:56:17;;;;;;;6.75;4.50;;;9.30;53.80;;;;;;4970364;28;87101;-90
2021/01/19 12:58:44;;;;;;;6.88;4.65;;;9.40;54.60;;;;;;4964153;28;86236;-90
2021/01/19 13:01:10;;;;;;;5.90;4.05;;;;;;;;;;4953552;28;88194;-90
2021/01/19 13:03:37;;;;;;;6.45;4.82;;;;;;;;;;4966052;28;87494;-90
2021/01/19 13:06:21;;;;;;;5.88;5.18;;;9.90;54.50;;;;;;4964792;28;87808;-90
2021/01/19 13:08:47;;;;;;;5.40;4.90;;;;;;;;;;4962129;28;87018;-90
2021/01/19 13:11:13;;;;;;;5.55;4.60;;;9.90;54.10;;;;;;4963384;28;89236;-90
2021/01/19 13:13:40;;;;;;;3.60;3.30;;;;;;;;;;4963882;28;91132;-89
2021/01/19 13:16:06;;;;;;;3.63;3.17;;;;;;;;;;4966151;28;87034;-89
2021/01/19 13:18:32;;;;;;;2.80;2.35;;;;;;;;;;4964136;28;86705;-90
2021/01/19 13:20:59;;;;;;;3.65;3.40;;;;;;;;;;4964494;28;87225;-90
2021/01/19 13:23:25;;;;;;;4.55;4.10;;;;;;;;;;4965494;28;87410;-90
2021/01/19 13:25:51;;;;;;;7.38;4.78;;;7.50;57.20;;;;;;4965128;28;87099;-90
2021/01/19 13:28:17;;;;;;;6.20;4.68;;;;;;;;;;4962397;28;86811;-90
2021/01/19 13:30:43;;;;;;;5.70;5.13;;;;;;;;;;4959363;28;88787;-90
2021/01/19 13:33:09;;;;;;;7.15;5.30;;;;;;;;;;4961061;28;88538;-91
2021/01/19 13:35:39;;;;;;;7.53;5.25;;;8.20;58.80;;;;;;4966662;28;87294;-91
2021/01/19 13:38:06;;;;;;;6.22;5.15;;;8.30;58.80;;;;;;4966262;28;86995;-92
2021/01/19 13:40:32;;;;;;;5.38;4.88;;;;;;;;;;4952501;28;87602;-91
2021/01/19 13:42:58;;;;;;;6.00;4.90;;;;;;;;;;4961258;28;89938;-91
2021/01/19 13:45:24;;;;;;;6.70;5.00;;;;;;;;;;4964893;28;86476;-89
2021/01/19 13:47:52;;;;;;;6.30;5.70;;;8.50;59.40;;;;;;4964335;28;85828;-90
2021/01/19 13:50:18;;;;;;;5.45;4.95;;;;;;;;;;4964608;28;87836;-88
2021/01/19 13:52:45;;;;;;;6.90;5.90;;;;;;;;;;4967522;28;89282;-90
2021/01/19 13:55:11;;;;;;;7.03;4.90;;;8.40;59.70;;;;;;4962708;28;88134;-90
2021/01/19 13:57:37;;;;;;;8.35;5.47;;;;;;;;;;4965775;28;86887;-92
2021/01/19 14:00:05;;;;;;;6.50;4.75;;;8.30;59.30;;;;;;4964720;28;90154;-90
2021/01/19 14:02:36;;;;;;;6.70;5.55;;;8.20;60.00;;;;;;4952069;28;87068;-93
2021/01/19 14:05:09;;;;;;;9.05;6.53;;;8.20;60.20;;;;;;4963718;28;87153;-92
2021/01/19 14:07:34;;;;;;;8.23;6.55;;;7.60;58.80;;;;;;4963190;28;86443;-86
2021/01/19 14:10:00;;;;;;;7.80;4.97;;;8.00;59.60;;;;;;4966034;28;86971;-87
2021/01/19 14:12:28;;;;;;;5.75;5.10;;;7.90;60.30;;;;;;5160675;22;87961;-91
2021/01/19 14:14:54;;;;;;;5.85;5.25;;;7.80;60.40;;;;;;4952968;28;87019;-89
2021/01/19 14:17:28;;;;;;;7.22;6.53;;;7.70;60.70;;;;;;4948102;28;86933;-90
2021/01/19 14:19:57;;;;;;;9.60;6.07;;;7.60;61.30;;;;;;4946717;28;90476;-89
2021/01/19 14:22:30;;;;;;;7.85;5.80;;;7.50;61.40;;;;;;4935971;28;88680;-90
2021/01/19 14:24:56;;;;;;;9.20;7.47;;;7.40;61.90;;;;;;4948548;28;86752;-89
2021/01/19 14:27:23;;;;;;;16.67;9.13;;;7.30;61.70;;;;;;4964098;28;86941;-88
2021/01/19 14:29:49;;;;;;;19.98;9.20;;;7.30;60.90;;;;;;4961518;28;88170;-90
2021/01/19 14:32:18;;;;;;;12.90;9.18;;;7.20;62.30;;;;;;4945121;28;87763;-89
2021/01/19 14:35:02;;;;;;;10.88;7.38;;;;;;;;;;4963957;28;87007;-91
2021/01/19 14:37:40;;;;;;;8.85;6.40;;;7.00;62.10;;;;;;4960393;28;86141;-88
2021/01/19 14:40:08;;;;;;;9.18;6.22;;;6.90;63.10;;;;;;4959205;28;87283;-90
2021/01/19 14:42:35;;;;;;;8.48;6.18;;;6.80;63.10;;;;;;4950524;28;89223;-90
2021/01/19 14:45:02;;;;;;;7.10;5.80;;;;;;;;;;4942573;28;87340;-89
2021/01/19 14:47:35;;;;;;;8.30;5.43;;;6.80;63.30;;;;;;4949907;28;87633;-89
2021/01/19 14:50:02;;;;;;;6.85;5.57;;;;;;;;;;4948218;28;89735;-89
2021/01/19 14:52:58;;;;;;;10.55;6.93;;;6.50;64.60;;;;;;4960890;28;87428;-88
2021/01/19 14:55:24;;;;;;;12.05;6.68;;;6.40;65.70;;;;;;4965608;28;86806;-87
2021/01/19 14:58:12;;;;;;;7.72;6.72;;;6.40;65.80;;;;;;4967076;28;86238;-85
2021/01/19 15:00:38;;;;;;;14.27;9.77;;;6.40;67.40;;;;;;4955454;28;87715;-87
2021/01/19 15:03:05;;;;;;;13.43;8.38;;;6.30;66.70;;;;;;4950101;28;88087;-86
2021/01/19 15:05:31;;;;;;;13.43;8.43;;;6.20;67.10;;;;;;4956844;28;86866;-85
2021/01/19 15:07:58;;;;;;;13.32;10.20;;;6.20;68.30;;;;;;4968208;28;86239;-85
2021/01/19 15:10:25;;;;;;;12.30;8.77;;;6.10;69.80;;;;;;4967543;28;88710;-86
2021/01/19 15:12:55;;;;;;;10.07;7.85;;;6.10;70.40;;;;;;4954398;28;87686;-86
2021/01/19 15:15:22;;;;;;;10.18;7.00;;;6.00;71.60;;;;;;4942159;28;87027;-87
2021/01/19 15:17:50;;;;;;;10.38;5.90;;;6.00;72.00;;;;;;4946694;28;87004;-87
2021/01/19 15:20:15;;;;;;;11.43;7.70;;;5.90;73.30;;;;;;4926066;28;89407;-87
2021/01/19 15:22:42;;;;;;;16.92;10.40;;;5.90;73.30;;;;;;4942174;28;87546;-86
2021/01/19 15:25:08;;;;;;;15.80;9.73;;;5.80;73.70;;;;;;4940841;28;86845;-87
2021/01/19 15:27:34;;;;;;;18.98;10.80;;;5.70;75.40;;;;;;4943599;28;87115;-87
2021/01/19 15:30:00;;;;;;;21.70;11.27;;;5.60;75.20;;;;;;4924390;28;89053;-87
2021/01/19 15:32:27;;;;;;;20.25;10.85;;;5.60;75.40;;;;;;4923590;28;88976;-87
2021/01/19 15:34:53;;;;;;;17.92;10.52;;;5.50;76.50;;;;;;4940941;28;88907;-85
2021/01/19 15:37:19;;;;;;;20.50;11.93;;;5.40;78.00;;;;;;4945056;28;86335;-86
2021/01/19 15:39:45;;;;;;;19.48;10.77;;;5.40;78.00;;;;;;4927878;28;88392;-85
2021/01/19 15:42:11;;;;;;;16.55;10.32;;;5.30;78.70;;;;;;4940993;28;87888;-86
2021/01/19 15:44:37;;;;;;;16.45;9.35;;;5.20;79.50;;;;;;4940992;28;86796;-87
2021/01/19 15:47:04;;;;;;;14.35;9.30;;;5.20;80.50;;;;;;4941769;28;86886;-86
2021/01/19 15:49:29;;;;;;;11.70;8.48;;;5.10;81.50;;;;;;4948177;28;87236;-86
2021/01/19 15:51:55;;;;;;;12.60;9.10;;;4.70;83.00;;;;;;4943229;28;87549;-85
2021/01/19 15:54:21;;;;;;;10.07;8.30;;;4.70;84.10;;;;;;4937163;28;86939;-86
2021/01/19 15:56:50;;;;;;;11.60;8.73;;;4.80;84.00;;;;;;4942802;28;86494;-86
2021/01/19 15:59:20;;;;;;;11.45;7.65;;;4.60;85.40;;;;;;4926503;28;89143;-86
2021/01/19 16:01:49;;;;;;;15.00;9.98;;;4.40;87.60;;;;;;4940243;28;87141;-85
2021/01/19 16:04:16;;;;;;;11.15;7.65;;;4.30;89.40;;;;;;4942307;28;86977;-85
2021/01/19 16:06:42;;;;;;;13.75;7.68;;;4.30;90.00;;;;;;4945230;28;87083;-85
2021/01/19 16:09:09;;;;;;;15.32;9.68;;;4.00;91.70;;;;;;4927698;28;87031;-85
2021/01/19 16:11:36;;;;;;;14.75;8.93;;;3.80;93.30;;;;;;4944764;28;89011;-86
2021/01/19 16:14:03;;;;;;;13.63;9.25;;;3.80;94.40;;;;;;4923065;28;87119;-86
2021/01/19 16:16:32;;;;;;;17.77;9.93;;;3.90;94.40;;;;;;4927581;28;86098;-85
2021/01/19 16:18:58;;;;;;;17.67;9.20;;;3.80;94.50;;;;;;4947390;28;87484;-86
2021/01/19 16:21:25;;;;;;;15.85;8.73;;;3.50;95.50;;;;;;4946805;28;86955;-86
2021/01/19 16:23:51;;;;;;;10.65;6.57;;;3.60;96.50;;;;;;4945066;28;87933;-87
2021/01/19 16:26:22;;;;;;;10.75;6.28;;;3.60;96.30;;;;;;4945436;28;87476;-84
2021/01/19 16:28:49;;;;;;;14.75;7.57;;;3.50;95.80;;;;;;4944415;28;87777;-86
2021/01/19 16:31:26;;;;;;;17.73;8.35;;;3.50;96.50;;;;;;4931286;28;87839;-85
2021/01/19 16:33:52;;;;;;;13.88;9.55;;;;;;;;;;4930551;28;86859;-86
2021/01/19 16:36:35;;;;;;;11.45;6.38;;;3.30;98.10;;;;;;4946154;28;86960;-85
2021/01/19 16:39:13;;;;;;;10.63;5.32;;;3.30;96.10;;;;;;4947118;28;87065;-88
2021/01/19 16:41:39;;;;;;;8.25;4.68;;;3.40;96.60;;;;;;4940729;28;87937;-88
2021/01/19 16:44:06;;;;;;;9.32;4.68;;;3.40;95.80;;;;;;4929867;28;86934;-87
2021/01/19 16:46:32;;;;;;;7.00;4.10;;;3.50;96.10;;;;;;4947501;28;86884;-87
2021/01/19 16:48:58;;;;;;;6.53;4.57;;;;;;;;;;4950126;28;88177;-87
2021/01/19 16:51:26;;;;;;;6.18;3.97;;;3.60;94.40;;;;;;4956768;28;89800;-87
2021/01/19 16:53:52;;;;;;;9.15;4.45;;;3.60;94.70;;;;;;4953030;28;86288;-87
2021/01/19 16:56:19;;;;;;;6.97;3.80;;;3.60;95.50;;;;;;4966986;28;86233;-88
2021/01/19 16:58:45;;;;;;;7.00;4.72;;;3.60;95.70;;;;;;4948439;28;87324;-87
2021/01/19 17:01:12;;;;;;;4.78;4.38;;;3.60;93.70;;;;;;4946817;28;87049;-91